createdAt,value
2022-10-02T00:09:13.597Z,1017.6
2022-10-02T00:24:10.240Z,1017.8
2022-10-02T00:39:06.583Z,1017.7
2022-10-02T00:54:03.041Z,1017.7
2022-10-02T01:08:59.669Z,1017.9
2022-10-02T01:23:55.519Z,1017.9
2022-10-02T01:38:51.443Z,1017.9
2022-10-02T01:53:47.777Z,1017.9
2022-10-02T02:08:44.060Z,1018.1
2022-10-02T02:23:40.870Z,1017.9
2022-10-02T02:38:36.884Z,1017.7
2022-10-02T02:53:33.187Z,1017.7
2022-10-02T03:08:29.537Z,1017.8
2022-10-02T03:23:25.657Z,1017.8
2022-10-02T03:38:22.004Z,1017.8
2022-10-02T03:53:18.328Z,1017.9
2022-10-02T04:04:02.223Z,1017.8
2022-10-02T04:18:58.557Z,1017.9
2022-10-02T04:33:54.694Z,1017.9
2022-10-02T04:48:51.240Z,1018
2022-10-02T05:03:46.821Z,1018.1
2022-10-02T05:18:42.990Z,1018.1
2022-10-02T05:33:39.272Z,1018.1
2022-10-02T05:48:36.051Z,1018.1
2022-10-02T06:03:31.744Z,1018.3
2022-10-02T06:18:28.115Z,1018.2
2022-10-02T06:33:24.346Z,1018.3
2022-10-02T06:48:20.664Z,1018.5
2022-10-02T07:03:17.107Z,1018.7
2022-10-02T07:18:12.875Z,1018.8
2022-10-02T07:33:08.930Z,1018.8
2022-10-02T07:36:01.357Z,1018.8
2022-10-02T07:50:57.422Z,1018.9
2022-10-02T08:05:53.916Z,1019
2022-10-02T08:20:49.760Z,1019.2
2022-10-02T08:35:46.362Z,1019.1
2022-10-02T08:50:43.109Z,1019.1
2022-10-02T09:05:39.317Z,1019
2022-10-02T09:20:35.548Z,1019
2022-10-02T09:35:31.605Z,1019
2022-10-02T09:50:28.069Z,1019
2022-10-02T10:05:23.990Z,1019.2
2022-10-02T10:20:20.572Z,1019.3
2022-10-02T10:35:16.621Z,1019.5
2022-10-02T10:50:12.917Z,1019.6
2022-10-02T11:05:09.607Z,1019.6
2022-10-02T11:20:06.180Z,1019.7
2022-10-02T11:35:02.333Z,1020
2022-10-02T11:49:58.356Z,1019.9
2022-10-02T12:04:54.735Z,1020
2022-10-02T12:19:51.930Z,1019.8
2022-10-02T12:34:48.442Z,1019.8
2022-10-02T12:49:44.697Z,1019.9
2022-10-02T13:04:40.943Z,1020.1
2022-10-02T13:19:37.480Z,1019.8
2022-10-02T13:34:37.672Z,1019.8
2022-10-02T13:49:30.835Z,1019.9
2022-10-02T14:04:27.194Z,1019.9
2022-10-02T14:19:24.559Z,1020.1
2022-10-02T14:34:19.747Z,1020.3
2022-10-02T14:49:15.834Z,1020.3
2022-10-02T15:04:12.528Z,1020.4
2022-10-02T15:19:08.740Z,1020.4
2022-10-02T15:34:04.488Z,1020.5
2022-10-02T15:49:00.223Z,1020.6
2022-10-02T16:03:56.627Z,1020.6
2022-10-02T16:18:53.027Z,1020.8
2022-10-02T16:33:49.066Z,1021
2022-10-02T16:48:45.295Z,1021.2
2022-10-02T17:03:41.252Z,1021.5
2022-10-02T17:18:37.521Z,1021.8
2022-10-02T17:33:33.730Z,1022.2
2022-10-02T17:48:29.607Z,1022.5
2022-10-02T18:03:25.387Z,1022.9
2022-10-02T18:18:21.557Z,1023.1
2022-10-02T18:33:17.372Z,1023.2
2022-10-02T18:48:17.428Z,1023.4
2022-10-02T19:03:10.032Z,1023.7
2022-10-02T19:18:05.661Z,1023.9
2022-10-02T19:33:01.968Z,1024
2022-10-02T19:47:58.096Z,1024.3
2022-10-02T20:02:54.969Z,1024.4
2022-10-02T20:17:51.425Z,1024.5
2022-10-02T20:32:47.655Z,1024.7
2022-10-02T20:47:44.070Z,1024.8
2022-10-02T21:02:39.789Z,1025.1
2022-10-02T21:17:36.233Z,1025.3
2022-10-02T21:32:32.841Z,1025.5
2022-10-02T21:47:29.117Z,1025.7
2022-10-02T22:02:25.286Z,1025.9
2022-10-02T22:17:21.171Z,1026.1
2022-10-02T22:32:17.243Z,1026.3
2022-10-02T22:47:13.232Z,1026.4
2022-10-02T23:02:10.151Z,1026.5
2022-10-02T23:17:06.298Z,1026.7
2022-10-02T23:32:02.691Z,1026.7
2022-10-02T23:46:58.591Z,1026.7
